createdAt,value
2023-03-06T00:01:50.433Z,-3.07
2023-03-06T00:03:52.251Z,-3.13
2023-03-06T00:05:54.968Z,-3.36
2023-03-06T00:07:56.703Z,-3.48
2023-03-06T00:09:58.123Z,-3.35
2023-03-06T00:11:59.650Z,-3.51
2023-03-06T00:14:01.179Z,-3.43
2023-03-06T00:16:02.628Z,-3.52
2023-03-06T00:18:05.931Z,-3.49
2023-03-06T00:20:08.632Z,-3.39
2023-03-06T00:22:13.788Z,-3.54
2023-03-06T00:24:15.752Z,-3.41
2023-03-06T00:26:17.339Z,-3.47
2023-03-06T00:28:18.825Z,-3.50
2023-03-06T00:30:22.895Z,-3.65
2023-03-06T00:32:25.563Z,-3.54
2023-03-06T00:34:26.968Z,-3.66
2023-03-06T00:36:28.514Z,-3.54
2023-03-06T00:38:30.011Z,-3.59
2023-03-06T00:40:31.433Z,-3.57
2023-03-06T00:42:33.008Z,-3.65
2023-03-06T00:44:34.536Z,-3.66
2023-03-06T00:46:35.965Z,-3.69
2023-03-06T00:48:37.702Z,-3.63
2023-03-06T00:50:39.222Z,-3.70
2023-03-06T00:52:40.660Z,-3.79
2023-03-06T00:54:42.335Z,-3.83
2023-03-06T00:56:43.882Z,-3.66
2023-03-06T00:58:45.610Z,-3.56
2023-03-06T01:00:47.145Z,-3.52
2023-03-06T01:02:48.655Z,-3.54
2023-03-06T01:04:50.196Z,-3.37
2023-03-06T01:06:52.053Z,-3.34
2023-03-06T01:08:53.569Z,-3.40
2023-03-06T01:10:55.008Z,-3.51
2023-03-06T01:12:56.983Z,-3.33
2023-03-06T01:14:58.612Z,-3.27
2023-03-06T01:17:00.116Z,-3.34
2023-03-06T01:19:03.421Z,-3.40
2023-03-06T01:21:05.930Z,-3.28
2023-03-06T01:23:07.367Z,-3.28
2023-03-06T01:25:09.482Z,-3.38
2023-03-06T01:27:11.025Z,-3.14
2023-03-06T01:29:12.484Z,-3.26
2023-03-06T01:31:14.009Z,-3.37
2023-03-06T01:33:15.654Z,-3.21
2023-03-06T01:35:17.281Z,-3.25
2023-03-06T01:37:19.018Z,-3.34
2023-03-06T01:39:20.543Z,-3.28
2023-03-06T01:41:22.046Z,-3.61
2023-03-06T01:43:26.338Z,-3.35
2023-03-06T01:45:27.732Z,-3.38
2023-03-06T01:47:29.417Z,-3.56
2023-03-06T01:49:39.029Z,-3.57
2023-03-06T01:52:03.689Z,-3.61
2023-03-06T01:54:11.383Z,-3.66
2023-03-06T01:56:13.900Z,-3.76
2023-03-06T01:58:18.459Z,-3.82
2023-03-06T02:00:25.226Z,-4.03
2023-03-06T02:02:26.878Z,-3.95
2023-03-06T02:04:29.567Z,-4.18
2023-03-06T02:06:30.996Z,-4.01
2023-03-06T02:08:33.370Z,-4.11
2023-03-06T02:10:34.892Z,-4.19
2023-03-06T02:12:36.408Z,-4.30
2023-03-06T02:14:39.516Z,-4.05
2023-03-06T02:16:42.252Z,-4.22
2023-03-06T02:18:45.617Z,-4.18
2023-03-06T02:20:51.922Z,-4.12
2023-03-06T02:23:12.221Z,-4.13
2023-03-06T02:25:32.452Z,-4.17
2023-03-06T02:27:34.290Z,-4.20
2023-03-06T02:29:35.695Z,-4.24
2023-03-06T02:31:37.123Z,-4.32
2023-03-06T02:33:38.593Z,-4.41
2023-03-06T02:35:43.576Z,-4.25
2023-03-06T02:37:45.524Z,-4.35
2023-03-06T02:39:52.073Z,-4.43
2023-03-06T02:41:53.966Z,-4.36
2023-03-06T02:43:55.406Z,-4.34
2023-03-06T02:45:57.465Z,-4.51
2023-03-06T02:47:58.984Z,-4.34
2023-03-06T02:50:00.400Z,-4.48
2023-03-06T02:52:01.902Z,-4.43
2023-03-06T02:54:03.492Z,-4.46
2023-03-06T02:56:05.147Z,-4.41
2023-03-06T02:58:07.049Z,-4.47
2023-03-06T03:00:09.766Z,-4.51
2023-03-06T03:02:11.200Z,-4.43
2023-03-06T03:04:12.868Z,-4.44
2023-03-06T03:06:14.404Z,-4.60
2023-03-06T03:08:15.839Z,-4.53
2023-03-06T03:10:17.308Z,-4.46
2023-03-06T03:12:18.798Z,-4.44
2023-03-06T03:14:20.286Z,-4.60
2023-03-06T03:16:21.820Z,-4.47
2023-03-06T03:18:23.337Z,-4.45
2023-03-06T03:20:24.796Z,-4.54
2023-03-06T03:22:26.451Z,-4.45
2023-03-06T03:24:28.046Z,-4.54
2023-03-06T03:26:29.524Z,-4.66
2023-03-06T03:28:31.196Z,-4.61
2023-03-06T03:30:33.194Z,-4.57
2023-03-06T03:32:34.672Z,-4.58
2023-03-06T03:34:36.238Z,-4.59
2023-03-06T03:36:37.708Z,-4.78
2023-03-06T03:38:39.155Z,-4.58
2023-03-06T03:40:40.823Z,-4.64
2023-03-06T03:42:42.332Z,-4.89
2023-03-06T03:44:43.875Z,-4.85
2023-03-06T03:46:45.458Z,-4.82
2023-03-06T03:48:47.225Z,-4.83
2023-03-06T03:50:48.657Z,-5.06
2023-03-06T03:52:50.086Z,-4.97
2023-03-06T03:54:51.480Z,-5.13
2023-03-06T03:56:52.864Z,-5.03
2023-03-06T03:58:54.511Z,-5.24
2023-03-06T04:00:56.131Z,-5.04
2023-03-06T04:02:57.542Z,-5.15
2023-03-06T04:04:59.152Z,-5.15
2023-03-06T04:07:00.599Z,-4.99
2023-03-06T04:09:02.022Z,-4.96
2023-03-06T04:11:03.746Z,-4.97
2023-03-06T04:13:07.514Z,-4.98
2023-03-06T04:15:10.557Z,-5.09
2023-03-06T04:17:12.029Z,-5.05
2023-03-06T04:19:13.527Z,-5.09
2023-03-06T04:21:14.939Z,-5.22
2023-03-06T04:23:17.653Z,-5.49
2023-03-06T04:25:19.053Z,-5.29
2023-03-06T04:27:20.498Z,-5.27
2023-03-06T04:29:22.014Z,-5.27
2023-03-06T04:31:23.555Z,-5.43
2023-03-06T04:33:25.031Z,-5.25
2023-03-06T04:35:26.917Z,-5.26
2023-03-06T04:37:28.370Z,-5.42
2023-03-06T04:39:29.772Z,-5.53
2023-03-06T04:41:31.336Z,-5.52
2023-03-06T04:43:33.088Z,-5.55
2023-03-06T04:45:35.070Z,-5.62
2023-03-06T04:47:37.068Z,-5.53
2023-03-06T04:49:38.601Z,-5.64
2023-03-06T04:51:40.004Z,-5.71
2023-03-06T04:53:41.555Z,-5.80
2023-03-06T04:55:42.975Z,-5.78
2023-03-06T04:57:46.801Z,-5.83
2023-03-06T04:59:48.556Z,-5.95
2023-03-06T05:01:50.012Z,-5.83
2023-03-06T05:03:51.455Z,-5.82
2023-03-06T05:05:52.905Z,-5.97
2023-03-06T05:07:54.580Z,-5.84
2023-03-06T05:09:56.196Z,-5.74
2023-03-06T05:11:57.578Z,-5.99
2023-03-06T05:13:58.973Z,-5.55
2023-03-06T05:16:05.321Z,-5.59
2023-03-06T05:18:06.864Z,-5.52
2023-03-06T05:20:10.563Z,-5.56
2023-03-06T05:22:12.067Z,-5.59
2023-03-06T05:24:13.492Z,-5.75
2023-03-06T05:26:15.548Z,-5.84
2023-03-06T05:28:16.963Z,-5.73
2023-03-06T05:30:18.454Z,-5.57
2023-03-06T05:32:20.215Z,-5.58
2023-03-06T05:34:21.696Z,-5.41
2023-03-06T05:36:23.175Z,-5.23
2023-03-06T05:38:24.721Z,-5.16
2023-03-06T05:40:26.441Z,-5.18
2023-03-06T05:42:30.734Z,-4.88
2023-03-06T05:44:33.195Z,-3.96
2023-03-06T05:46:34.567Z,-3.95
2023-03-06T05:48:36.589Z,-3.04
2023-03-06T05:50:38.556Z,-2.58
2023-03-06T05:52:40.211Z,-2.39
2023-03-06T05:54:41.600Z,-1.83
2023-03-06T05:56:43.242Z,-1.40
2023-03-06T05:58:44.740Z,-0.45
2023-03-06T06:00:46.128Z,0.43
2023-03-06T06:02:47.649Z,0.79
2023-03-06T06:04:49.093Z,0.75
2023-03-06T06:06:59.320Z,1.21
2023-03-06T06:09:00.720Z,1.12
2023-03-06T06:11:04.911Z,0.87
2023-03-06T06:13:06.840Z,0.21
2023-03-06T06:15:08.739Z,-0.54
2023-03-06T06:17:10.216Z,-0.48
2023-03-06T06:19:11.817Z,-1.37
2023-03-06T06:21:14.420Z,-1.24
2023-03-06T06:23:15.872Z,-1.42
2023-03-06T06:25:17.407Z,-1.64
2023-03-06T06:27:18.821Z,-1.69
2023-03-06T06:29:20.952Z,-1.73
2023-03-06T06:31:22.507Z,-1.75
2023-03-06T06:33:24.257Z,-1.86
2023-03-06T06:35:26.626Z,-2.01
2023-03-06T06:37:28.052Z,-1.82
2023-03-06T06:39:29.805Z,-1.98
2023-03-06T06:41:50.723Z,-1.82
2023-03-06T06:43:53.092Z,-1.83
2023-03-06T06:46:08.885Z,-1.88
2023-03-06T06:48:17.540Z,-1.38
2023-03-06T06:50:19.548Z,-1.40
2023-03-06T06:52:22.052Z,-1.53
2023-03-06T06:54:23.689Z,-1.46
2023-03-06T06:56:25.154Z,-1.34
2023-03-06T06:58:26.756Z,-1.45
2023-03-06T07:00:28.418Z,-1.27
2023-03-06T07:02:29.867Z,-1.43
2023-03-06T07:04:31.379Z,-1.24
2023-03-06T07:06:32.825Z,-1.27
2023-03-06T07:08:35.218Z,-1.24
2023-03-06T07:10:37.698Z,-1.18
2023-03-06T07:12:39.541Z,-1.07
2023-03-06T07:14:40.946Z,-0.89
2023-03-06T07:16:42.466Z,-0.74
2023-03-06T07:18:44.495Z,-0.84
2023-03-06T07:20:45.875Z,-0.50
2023-03-06T07:22:51.377Z,-0.62
2023-03-06T07:24:53.180Z,-0.41
2023-03-06T07:26:54.818Z,-0.14
2023-03-06T07:28:56.461Z,-0.01
2023-03-06T07:30:57.960Z,-0.25
2023-03-06T07:32:59.840Z,0.22
2023-03-06T07:35:18.973Z,0.07
2023-03-06T07:37:21.412Z,-0.15
2023-03-06T07:39:22.865Z,-0.06
2023-03-06T07:41:24.304Z,-0.04
2023-03-06T07:43:25.693Z,-0.01
2023-03-06T07:45:27.319Z,-0.01
2023-03-06T07:47:28.745Z,-0.01
2023-03-06T07:49:30.172Z,-0.03
2023-03-06T07:51:31.642Z,0.26
2023-03-06T07:53:34.128Z,0.25
2023-03-06T07:55:35.550Z,0.43
2023-03-06T07:57:38.039Z,0.54
2023-03-06T07:59:39.648Z,0.22
2023-03-06T08:01:41.068Z,0.34
2023-03-06T08:03:42.796Z,0.46
2023-03-06T08:05:44.870Z,0.36
2023-03-06T08:07:46.277Z,0.18
2023-03-06T08:09:48.627Z,0.33
2023-03-06T08:11:50.097Z,0.48
2023-03-06T08:13:52.248Z,0.32
2023-03-06T08:15:54.619Z,0.20
2023-03-06T08:17:56.125Z,0.23
2023-03-06T08:19:57.643Z,0.16
2023-03-06T08:21:59.302Z,0.17
2023-03-06T08:24:00.901Z,0.20
2023-03-06T08:26:05.405Z,0.28
2023-03-06T08:28:06.914Z,0.18
2023-03-06T08:30:09.124Z,0.44
2023-03-06T08:32:11.912Z,0.24
2023-03-06T08:34:17.817Z,0.58
2023-03-06T08:36:19.478Z,0.53
2023-03-06T08:38:20.882Z,0.47
2023-03-06T08:40:22.362Z,0.46
2023-03-06T08:42:23.955Z,0.55
2023-03-06T08:44:25.372Z,0.36
2023-03-06T08:46:29.244Z,0.54
2023-03-06T08:48:30.962Z,0.53
2023-03-06T08:50:32.420Z,0.52
2023-03-06T08:52:33.919Z,1.01
2023-03-06T08:54:35.800Z,1.15
2023-03-06T08:56:37.271Z,1.65
2023-03-06T08:58:38.909Z,1.77
2023-03-06T09:00:40.603Z,1.18
2023-03-06T09:02:42.136Z,1.28
2023-03-06T09:04:43.624Z,1.51
2023-03-06T09:06:45.525Z,1.46
2023-03-06T09:08:46.897Z,1.31
2023-03-06T09:10:48.772Z,1.43
2023-03-06T09:12:53.144Z,1.75
2023-03-06T09:14:55.893Z,1.42
2023-03-06T09:16:57.518Z,1.52
2023-03-06T09:18:59.123Z,1.75
2023-03-06T09:21:00.984Z,1.63
2023-03-06T09:23:02.586Z,1.68
2023-03-06T09:25:05.769Z,1.96
2023-03-06T09:27:07.229Z,2.23
2023-03-06T09:29:08.875Z,2.13
2023-03-06T09:31:13.306Z,2.53
2023-03-06T09:33:15.278Z,2.34
2023-03-06T09:35:17.201Z,1.83
2023-03-06T09:37:19.197Z,1.67
2023-03-06T09:39:20.584Z,1.80
2023-03-06T09:41:24.808Z,2.15
2023-03-06T09:43:32.251Z,1.94
2023-03-06T09:45:36.931Z,1.60
2023-03-06T09:47:45.131Z,1.71
2023-03-06T09:50:04.785Z,1.72
2023-03-06T09:52:42.173Z,1.82
2023-03-06T09:54:55.516Z,1.95
2023-03-06T09:56:57.314Z,1.99
2023-03-06T09:59:22.865Z,1.92
2023-03-06T10:01:26.041Z,1.62
2023-03-06T10:03:48.521Z,1.90
2023-03-06T10:06:17.997Z,2.07
2023-03-06T10:08:22.371Z,2.04
2023-03-06T10:10:27.904Z,2.20
2023-03-06T10:12:35.206Z,2.18
2023-03-06T10:14:43.246Z,2.19
2023-03-06T10:16:44.877Z,2.34
2023-03-06T10:18:46.367Z,2.26
2023-03-06T10:20:58.309Z,2.31
2023-03-06T10:23:39.651Z,2.18
2023-03-06T10:26:03.454Z,1.94
2023-03-06T10:28:18.261Z,1.81
2023-03-06T10:30:37.786Z,1.95
2023-03-06T10:32:52.941Z,1.79
2023-03-06T10:34:59.291Z,1.95
2023-03-06T10:37:13.165Z,1.83
2023-03-06T10:39:21.275Z,2.07
2023-03-06T10:41:24.806Z,2.07
2023-03-06T10:43:26.481Z,2.32
2023-03-06T10:45:28.718Z,2.15
2023-03-06T10:47:33.106Z,1.96
2023-03-06T10:49:37.094Z,1.88
2023-03-06T10:51:38.705Z,2.02
2023-03-06T10:53:56.632Z,2.28
2023-03-06T10:56:01.750Z,2.50
2023-03-06T10:58:19.907Z,2.63
2023-03-06T11:00:30.397Z,2.11
2023-03-06T11:02:34.549Z,2.56
2023-03-06T11:04:36.966Z,2.35
2023-03-06T11:06:38.372Z,2.14
2023-03-06T11:08:41.919Z,2.28
2023-03-06T11:10:55.802Z,1.84
2023-03-06T11:13:05.770Z,1.69
2023-03-06T11:15:23.333Z,1.66
2023-03-06T11:17:30.259Z,1.71
2023-03-06T11:19:32.362Z,1.78
2023-03-06T11:21:35.730Z,1.91
2023-03-06T11:23:45.835Z,1.81
2023-03-06T11:25:56.436Z,1.80
2023-03-06T11:28:03.650Z,1.97
2023-03-06T11:30:35.045Z,2.09
2023-03-06T11:32:47.348Z,2.18
2023-03-06T11:34:57.409Z,1.96
2023-03-06T11:37:08.456Z,2.32
2023-03-06T11:39:28.143Z,2.06
2023-03-06T11:41:52.793Z,2.31
2023-03-06T11:44:17.299Z,2.34
2023-03-06T11:46:37.549Z,2.24
2023-03-06T11:48:48.359Z,1.96
2023-03-06T11:50:59.732Z,1.99
2023-03-06T11:53:04.348Z,1.84
2023-03-06T11:55:08.560Z,1.98
2023-03-06T11:57:17.863Z,1.88
2023-03-06T11:59:46.364Z,1.86
2023-03-06T12:02:27.692Z,1.73
2023-03-06T12:04:53.730Z,1.98
2023-03-06T12:07:19.482Z,1.94
2023-03-06T12:09:33.822Z,1.96
2023-03-06T12:12:11.919Z,2.12
2023-03-06T12:14:40.863Z,2.03
2023-03-06T12:17:04.243Z,1.87
2023-03-06T12:19:30.006Z,1.87
2023-03-06T12:21:46.468Z,2.00
2023-03-06T12:24:09.779Z,1.88
2023-03-06T12:26:36.231Z,1.85
2023-03-06T12:28:45.983Z,1.86
2023-03-06T12:31:02.661Z,1.97
2023-03-06T12:33:19.289Z,2.06
2023-03-06T12:35:44.638Z,2.06
2023-03-06T12:37:58.029Z,2.08
2023-03-06T12:40:40.832Z,2.13
2023-03-06T12:43:03.119Z,2.02
2023-03-06T12:45:30.412Z,1.98
2023-03-06T12:47:37.855Z,2.02
2023-03-06T12:49:43.622Z,1.99
2023-03-06T12:51:45.957Z,1.81
2023-03-06T12:53:49.761Z,1.86
2023-03-06T12:55:51.908Z,2.10
2023-03-06T12:57:53.642Z,2.10
2023-03-06T12:59:55.115Z,2.04
2023-03-06T13:02:11.820Z,1.83
2023-03-06T13:04:35.185Z,2.35
2023-03-06T13:06:50.835Z,2.36
2023-03-06T13:09:20.277Z,2.40
2023-03-06T13:11:56.220Z,2.19
2023-03-06T13:13:57.705Z,2.09
2023-03-06T13:16:12.344Z,2.02
2023-03-06T13:18:23.348Z,1.85
2023-03-06T13:20:35.138Z,1.91
2023-03-06T13:22:37.099Z,2.13
2023-03-06T13:24:38.611Z,2.20
2023-03-06T13:26:39.990Z,2.01
2023-03-06T13:28:43.266Z,2.07
2023-03-06T13:30:45.790Z,2.08
2023-03-06T13:32:48.556Z,1.95
2023-03-06T13:34:50.188Z,2.17
2023-03-06T13:36:51.949Z,2.28
2023-03-06T13:39:12.951Z,2.31
2023-03-06T13:41:20.697Z,2.27
2023-03-06T13:43:22.334Z,2.26
2023-03-06T13:45:34.382Z,2.19
2023-03-06T13:48:05.805Z,2.28
2023-03-06T13:50:12.952Z,1.99
2023-03-06T13:52:54.245Z,1.84
2023-03-06T13:55:03.619Z,2.00
2023-03-06T13:57:25.513Z,2.00
2023-03-06T14:00:08.093Z,1.85
2023-03-06T14:02:49.466Z,2.02
2023-03-06T14:04:57.510Z,2.14
2023-03-06T14:06:58.975Z,2.17
2023-03-06T14:09:03.813Z,2.21
2023-03-06T14:11:20.640Z,2.25
2023-03-06T14:13:35.110Z,2.37
2023-03-06T14:15:44.866Z,2.40
2023-03-06T14:18:14.615Z,2.49
2023-03-06T14:20:18.796Z,2.59
2023-03-06T14:22:24.674Z,2.48
2023-03-06T14:24:36.677Z,2.39
2023-03-06T14:26:45.420Z,2.29
2023-03-06T14:28:52.808Z,2.34
2023-03-06T14:30:55.790Z,2.10
2023-03-06T14:32:57.324Z,2.11
2023-03-06T14:34:58.888Z,2.39
2023-03-06T14:37:03.105Z,2.25
2023-03-06T14:39:28.662Z,2.11
2023-03-06T14:41:33.510Z,2.18
2023-03-06T14:43:34.938Z,2.12
2023-03-06T14:45:36.538Z,2.03
2023-03-06T14:47:38.212Z,2.25
2023-03-06T14:49:39.611Z,2.11
2023-03-06T14:51:44.235Z,1.99
2023-03-06T14:53:48.632Z,2.13
2023-03-06T14:56:00.004Z,2.33
2023-03-06T14:58:07.764Z,2.29
2023-03-06T15:00:18.114Z,2.24
2023-03-06T15:02:23.004Z,2.34
2023-03-06T15:04:44.960Z,2.36
2023-03-06T15:06:46.608Z,2.16
2023-03-06T15:09:02.688Z,1.88
2023-03-06T15:11:06.926Z,2.35
2023-03-06T15:13:21.134Z,2.51
2023-03-06T15:15:25.643Z,2.34
2023-03-06T15:17:27.083Z,2.35
2023-03-06T15:19:28.490Z,2.31
2023-03-06T15:21:38.152Z,2.22
2023-03-06T15:23:42.450Z,2.25
2023-03-06T15:25:56.177Z,2.31
2023-03-06T15:28:03.368Z,2.45
2023-03-06T15:30:26.802Z,2.47
2023-03-06T15:32:32.651Z,2.46
2023-03-06T15:34:34.139Z,2.04
2023-03-06T15:36:43.497Z,2.16
2023-03-06T15:38:46.420Z,2.25
2023-03-06T15:40:59.330Z,2.25
2023-03-06T15:43:00.974Z,2.24
2023-03-06T15:45:16.789Z,2.25
2023-03-06T15:47:18.959Z,2.38
2023-03-06T15:49:20.445Z,2.40
2023-03-06T15:51:21.986Z,2.24
2023-03-06T15:53:23.611Z,2.20
2023-03-06T15:55:26.088Z,2.30
2023-03-06T15:57:28.177Z,2.43
2023-03-06T15:59:30.676Z,2.47
2023-03-06T16:01:32.207Z,2.60
2023-03-06T16:03:33.777Z,2.69
2023-03-06T16:05:35.291Z,2.69
2023-03-06T16:07:36.767Z,2.63
2023-03-06T16:09:38.313Z,2.84
2023-03-06T16:11:43.948Z,2.81
2023-03-06T16:13:46.137Z,2.80
2023-03-06T16:15:50.250Z,2.73
2023-03-06T16:17:51.723Z,2.83
2023-03-06T16:19:53.198Z,2.90
2023-03-06T16:21:56.178Z,2.94
2023-03-06T16:23:57.886Z,2.84
2023-03-06T16:25:59.455Z,2.83
2023-03-06T16:28:02.061Z,2.78
2023-03-06T16:30:04.725Z,2.86
2023-03-06T16:32:06.648Z,2.84
2023-03-06T16:34:08.075Z,2.92
2023-03-06T16:36:13.264Z,2.88
2023-03-06T16:38:14.862Z,2.63
2023-03-06T16:40:26.086Z,2.73
2023-03-06T16:42:27.828Z,2.57
2023-03-06T16:44:29.298Z,2.62
2023-03-06T16:46:30.831Z,2.55
2023-03-06T16:48:32.711Z,2.56
2023-03-06T16:50:38.767Z,2.76
2023-03-06T16:52:40.151Z,2.59
2023-03-06T16:54:43.622Z,2.57
2023-03-06T16:56:46.407Z,2.54
2023-03-06T16:58:48.249Z,2.62
2023-03-06T17:00:49.865Z,2.45
2023-03-06T17:02:52.570Z,2.41
2023-03-06T17:04:54.008Z,2.43
2023-03-06T17:06:55.512Z,2.50
2023-03-06T17:08:57.166Z,2.59
2023-03-06T17:10:58.594Z,2.65
2023-03-06T17:13:00.317Z,2.43
2023-03-06T17:15:02.534Z,2.57
2023-03-06T17:17:04.227Z,2.71
2023-03-06T17:19:06.459Z,2.70
2023-03-06T17:21:08.627Z,2.48
2023-03-06T17:23:10.027Z,2.46
2023-03-06T17:25:11.645Z,2.55
2023-03-06T17:27:13.099Z,2.65
2023-03-06T17:29:15.103Z,2.54
2023-03-06T17:31:19.247Z,2.44
2023-03-06T17:33:20.767Z,2.47
2023-03-06T17:35:22.191Z,2.51
2023-03-06T17:37:23.851Z,2.40
2023-03-06T17:39:25.472Z,2.55
2023-03-06T17:41:27.086Z,2.36
2023-03-06T17:43:28.708Z,2.33
2023-03-06T17:45:30.195Z,2.31
2023-03-06T17:47:31.634Z,2.31
2023-03-06T17:49:33.227Z,2.34
2023-03-06T17:51:34.825Z,2.40
2023-03-06T17:53:37.565Z,2.39
2023-03-06T17:55:39.135Z,2.31
2023-03-06T17:57:40.604Z,2.14
2023-03-06T17:59:42.012Z,2.24
2023-03-06T18:01:43.535Z,2.22
2023-03-06T18:03:47.369Z,2.07
2023-03-06T18:05:59.061Z,2.30
2023-03-06T18:08:00.614Z,2.12
2023-03-06T18:10:02.205Z,2.12
2023-03-06T18:12:03.892Z,2.20
2023-03-06T18:14:05.655Z,2.29
2023-03-06T18:16:09.125Z,2.16
2023-03-06T18:18:10.549Z,2.15
2023-03-06T18:20:12.438Z,2.22
2023-03-06T18:22:14.132Z,2.10
2023-03-06T18:24:15.517Z,2.12
2023-03-06T18:26:20.225Z,1.69
2023-03-06T18:28:21.834Z,1.87
2023-03-06T18:30:23.420Z,1.85
2023-03-06T18:32:25.151Z,1.80
2023-03-06T18:34:26.710Z,1.86
2023-03-06T18:36:31.390Z,1.85
2023-03-06T18:38:33.161Z,1.86
2023-03-06T18:40:34.627Z,1.97
2023-03-06T18:42:36.019Z,1.75
2023-03-06T18:44:37.651Z,1.80
2023-03-06T18:46:39.182Z,1.76
2023-03-06T18:48:40.612Z,1.75
2023-03-06T18:50:42.070Z,1.75
2023-03-06T18:52:43.988Z,1.72
2023-03-06T18:54:45.589Z,1.59
2023-03-06T18:56:46.996Z,1.72
2023-03-06T18:58:49.026Z,1.72
2023-03-06T19:00:50.680Z,1.49
2023-03-06T19:02:52.147Z,1.49
2023-03-06T19:04:53.740Z,1.34
2023-03-06T19:06:55.418Z,1.21
2023-03-06T19:08:57.352Z,1.26
2023-03-06T19:11:05.995Z,1.40
2023-03-06T19:13:08.625Z,1.34
2023-03-06T19:15:10.381Z,1.26
2023-03-06T19:17:11.979Z,1.39
2023-03-06T19:19:13.664Z,1.38
2023-03-06T19:21:18.337Z,1.22
2023-03-06T19:23:20.615Z,1.28
2023-03-06T19:25:22.075Z,1.22
2023-03-06T19:27:23.491Z,0.98
2023-03-06T19:29:25.083Z,1.02
2023-03-06T19:31:27.780Z,1.00
2023-03-06T19:33:29.253Z,1.06
2023-03-06T19:35:30.823Z,1.09
2023-03-06T19:37:32.616Z,1.01
2023-03-06T19:39:34.010Z,1.05
2023-03-06T19:41:35.561Z,0.95
2023-03-06T19:43:37.531Z,0.89
2023-03-06T19:45:42.488Z,0.95
2023-03-06T19:47:44.062Z,0.88
2023-03-06T19:49:45.622Z,0.75
2023-03-06T19:51:47.095Z,0.64
2023-03-06T19:53:48.602Z,0.78
2023-03-06T19:55:50.075Z,0.72
2023-03-06T19:57:53.013Z,0.55
2023-03-06T19:59:54.508Z,0.66
2023-03-06T20:01:56.034Z,0.54
2023-03-06T20:03:58.359Z,0.67
2023-03-06T20:06:03.587Z,0.66
2023-03-06T20:08:05.216Z,0.49
2023-03-06T20:10:07.108Z,0.48
2023-03-06T20:12:08.784Z,0.59
2023-03-06T20:14:11.683Z,0.49
2023-03-06T20:16:13.364Z,0.49
2023-03-06T20:18:15.187Z,0.40
2023-03-06T20:20:16.681Z,0.15
2023-03-06T20:22:18.088Z,0.30
2023-03-06T20:24:19.684Z,0.30
2023-03-06T20:26:21.262Z,0.19
2023-03-06T20:28:23.204Z,0.10
2023-03-06T20:30:26.436Z,0.18
2023-03-06T20:32:31.053Z,0.00
2023-03-06T20:34:32.495Z,-0.03
2023-03-06T20:36:39.790Z,0.03
2023-03-06T20:38:41.287Z,-0.14
2023-03-06T20:40:43.448Z,-0.16
2023-03-06T20:42:44.977Z,-0.29
2023-03-06T20:44:46.405Z,-0.30
2023-03-06T20:46:47.889Z,-0.24
2023-03-06T20:48:51.323Z,-0.35
2023-03-06T20:51:03.135Z,-0.28
2023-03-06T20:53:04.555Z,-0.30
2023-03-06T20:55:06.666Z,-0.17
2023-03-06T20:57:08.346Z,-0.34
2023-03-06T20:59:11.847Z,-0.36
2023-03-06T21:01:26.876Z,-0.36
2023-03-06T21:03:28.487Z,-0.44
2023-03-06T21:05:29.868Z,-0.36
2023-03-06T21:07:31.234Z,-0.57
2023-03-06T21:09:32.742Z,-0.42
2023-03-06T21:11:35.197Z,-0.32
2023-03-06T21:13:36.780Z,-0.48
2023-03-06T21:15:39.674Z,-0.49
2023-03-06T21:17:41.066Z,-0.69
2023-03-06T21:19:42.628Z,-0.74
2023-03-06T21:21:44.301Z,-0.65
2023-03-06T21:23:46.896Z,-0.76
2023-03-06T21:25:50.260Z,-0.77
2023-03-06T21:27:51.884Z,-0.77
2023-03-06T21:29:53.319Z,-0.86
2023-03-06T21:31:54.996Z,-0.87
2023-03-06T21:33:57.221Z,-0.79
2023-03-06T21:35:58.659Z,-0.87
2023-03-06T21:38:00.264Z,-0.92
2023-03-06T21:40:02.036Z,-1.00
2023-03-06T21:42:03.458Z,-0.96
2023-03-06T21:44:06.249Z,-0.91
2023-03-06T21:46:07.879Z,-1.03
2023-03-06T21:48:09.723Z,-0.94
2023-03-06T21:50:11.953Z,-1.00
2023-03-06T21:52:13.542Z,-1.05
2023-03-06T21:54:14.941Z,-1.10
2023-03-06T21:56:18.815Z,-0.79
2023-03-06T21:58:20.437Z,-0.92
2023-03-06T22:00:22.192Z,-0.92
2023-03-06T22:02:23.848Z,-0.85
2023-03-06T22:04:25.520Z,-0.92
2023-03-06T22:06:28.961Z,-1.16
2023-03-06T22:08:30.423Z,-1.12
2023-03-06T22:10:31.887Z,-1.29
2023-03-06T22:12:34.110Z,-1.26
2023-03-06T22:14:35.630Z,-1.17
2023-03-06T22:16:37.126Z,-1.43
2023-03-06T22:18:39.125Z,-1.24
2023-03-06T22:20:40.694Z,-1.27
2023-03-06T22:22:42.266Z,-1.40
2023-03-06T22:24:43.676Z,-1.47
2023-03-06T22:26:45.518Z,-1.33
2023-03-06T22:28:47.012Z,-1.40
2023-03-06T22:30:48.408Z,-1.48
2023-03-06T22:32:52.495Z,-1.32
2023-03-06T22:34:53.994Z,-1.43
2023-03-06T22:36:55.508Z,-1.40
2023-03-06T22:38:59.992Z,-1.52
2023-03-06T22:41:01.663Z,-1.60
2023-03-06T22:43:03.081Z,-1.58
2023-03-06T22:45:04.964Z,-1.73
2023-03-06T22:47:06.537Z,-1.48
2023-03-06T22:49:10.628Z,-1.63
2023-03-06T22:51:15.087Z,-1.64
2023-03-06T22:53:16.681Z,-1.63
2023-03-06T22:55:18.065Z,-1.61
2023-03-06T22:57:19.595Z,-1.67
2023-03-06T22:59:21.092Z,-1.82
2023-03-06T23:01:34.001Z,-1.62
2023-03-06T23:03:37.554Z,-1.76
2023-03-06T23:05:41.642Z,-1.48
2023-03-06T23:07:43.287Z,-1.61
2023-03-06T23:09:44.908Z,-1.42
2023-03-06T23:11:46.928Z,-1.37
2023-03-06T23:13:48.416Z,-1.29
2023-03-06T23:15:50.065Z,-1.27
2023-03-06T23:17:51.602Z,-1.27
2023-03-06T23:19:53.090Z,-1.27
2023-03-06T23:21:54.654Z,-1.33
2023-03-06T23:23:56.566Z,-1.39
2023-03-06T23:26:00.874Z,-1.50
2023-03-06T23:28:03.056Z,-1.63
2023-03-06T23:30:07.879Z,-1.58
2023-03-06T23:32:09.353Z,-1.69
2023-03-06T23:34:10.900Z,-1.71
2023-03-06T23:36:14.490Z,-1.70
2023-03-06T23:38:15.825Z,-1.79
2023-03-06T23:40:17.574Z,-1.89
2023-03-06T23:42:19.220Z,-2.04
2023-03-06T23:44:20.607Z,-2.01
2023-03-06T23:46:22.655Z,-2.04
2023-03-06T23:48:24.494Z,-2.01
2023-03-06T23:50:25.924Z,-2.11
2023-03-06T23:52:27.318Z,-2.17
2023-03-06T23:54:28.802Z,-2.03
2023-03-06T23:56:30.224Z,-2.09
2023-03-06T23:58:32.547Z,-2.13
